AFL1673 UNNT-UIII
Flight info
| Callsign | AFL1673 |
|---|---|
| Flight time | N/A |
| Altitude | 35000 |
| Route | OGATI1K OGATI A308 RISPA A822 LAPAK B151 RO A817 RUSAM G490 NH NH4A |
| Aircraft | A321/M-SDE3FGHIRWY/LB1 |
Departure
| Time | 2026-04-27 13:00 |
|---|---|
| Airport | Novosibirsk Tolmachevo Airport (UNNT) |
Arrival
| Time | N/A |
|---|---|
| Airport | Irkutsk International Airport (UIII) |
| Time | Latitude | Longitude | Altitude | Speed | Heading |
|---|---|---|---|---|---|
| 2026-04-27 12:38 | 55.01165 | 82.67372 | 373 ft | 0 kts | 171° |
| 2026-04-27 12:57 | 55.01151 | 82.67376 | 372 ft | 8 kts | 171° |
| 2026-04-27 12:57 | 55.01129 | 82.67461 | 372 ft | 9 kts | 66° |
| 2026-04-27 12:57 | 55.01192 | 82.67534 | 372 ft | 17 kts | 31° |
| 2026-04-27 12:57 | 55.01301 | 82.67649 | 372 ft | 18 kts | 31° |
| 2026-04-27 12:58 | 55.01345 | 82.67695 | 372 ft | 0 kts | 31° |
| 2026-04-27 12:58 | 55.01382 | 82.67734 | 371 ft | 13 kts | 31° |
| 2026-04-27 12:58 | 55.01458 | 82.67795 | 370 ft | 12 kts | 15° |
| 2026-04-27 12:59 | 55.01486 | 82.67746 | 370 ft | 5 kts | 272° |
| 2026-04-27 12:59 | 55.01484 | 82.67716 | 370 ft | 0 kts | 263° |
| 2026-04-27 12:59 | 55.01481 | 82.67671 | 370 ft | 12 kts | 261° |
| 2026-04-27 12:59 | 55.01441 | 82.67240 | 372 ft | 69 kts | 261° |
| 2026-04-27 13:00 | 55.01337 | 82.66052 | 372 ft | 127 kts | 261° |
| 2026-04-27 13:00 | 55.01167 | 82.64271 | 409 ft | 167 kts | 261° |
| 2026-04-27 13:00 | 55.00958 | 82.62315 | 1053 ft | 163 kts | 261° |
| 2026-04-27 13:00 | 55.00774 | 82.60360 | 1754 ft | 164 kts | 264° |
| 2026-04-27 13:01 | 55.00603 | 82.58377 | 2281 ft | 170 kts | 264° |
| 2026-04-27 13:01 | 55.00419 | 82.56219 | 2449 ft | 190 kts | 263° |
| 2026-04-27 13:01 | 55.00261 | 82.53844 | 2712 ft | 204 kts | 274° |
| 2026-04-27 13:01 | 55.00834 | 82.51566 | 3066 ft | 216 kts | 314° |
| 2026-04-27 13:02 | 55.02201 | 82.50384 | 3029 ft | 225 kts | 350° |
| 2026-04-27 13:02 | 55.03773 | 82.50263 | 3020 ft | 228 kts | 359° |
| 2026-04-27 13:02 | 55.05364 | 82.50417 | 3015 ft | 229 kts | 1° |
| 2026-04-27 13:02 | 55.06956 | 82.50628 | 3013 ft | 229 kts | 1° |
| 2026-04-27 13:03 | 55.08545 | 82.50826 | 3010 ft | 229 kts | 1° |
| 2026-04-27 13:03 | 55.10131 | 82.50995 | 3010 ft | 229 kts | 1° |
| 2026-04-27 13:03 | 55.11658 | 82.51758 | 3006 ft | 234 kts | 31° |
| 2026-04-27 13:03 | 55.12729 | 82.53902 | 3009 ft | 241 kts | 66° |
| 2026-04-27 13:04 | 55.13129 | 82.56756 | 3012 ft | 243 kts | 78° |
| 2026-04-27 13:04 | 55.13404 | 82.59699 | 3015 ft | 253 kts | 86° |
| 2026-04-27 13:04 | 55.13163 | 82.62864 | 3388 ft | 270 kts | 102° |
| 2026-04-27 13:04 | 55.12757 | 82.66100 | 4076 ft | 275 kts | 102° |
| 2026-04-27 13:05 | 55.12347 | 82.69384 | 4822 ft | 278 kts | 102° |
| 2026-04-27 13:05 | 55.11934 | 82.72685 | 5578 ft | 280 kts | 102° |
| 2026-04-27 13:05 | 55.11516 | 82.76023 | 6312 ft | 282 kts | 102° |
| 2026-04-27 13:05 | 55.11093 | 82.79390 | 7009 ft | 285 kts | 102° |
| 2026-04-27 13:06 | 55.10663 | 82.82792 | 7688 ft | 288 kts | 102° |
| 2026-04-27 13:06 | 55.10227 | 82.86232 | 8353 ft | 291 kts | 102° |
| 2026-04-27 13:06 | 55.09786 | 82.89706 | 9008 ft | 295 kts | 102° |
| 2026-04-27 13:06 | 55.09337 | 82.93221 | 9656 ft | 298 kts | 103° |
| 2026-04-27 13:07 | 55.08881 | 82.96782 | 10272 ft | 302 kts | 103° |
| 2026-04-27 13:07 | 55.08409 | 83.00451 | 10504 ft | 320 kts | 103° |
| 2026-04-27 13:07 | 55.07903 | 83.04352 | 10635 ft | 339 kts | 103° |
| 2026-04-27 13:07 | 55.07367 | 83.08479 | 10762 ft | 358 kts | 103° |
| 2026-04-27 13:08 | 55.06803 | 83.12809 | 10972 ft | 372 kts | 103° |
| 2026-04-27 13:08 | 55.06224 | 83.17252 | 11431 ft | 378 kts | 103° |
| 2026-04-27 13:08 | 55.05636 | 83.21756 | 11918 ft | 383 kts | 104° |
| 2026-04-27 13:08 | 55.05042 | 83.26305 | 12418 ft | 388 kts | 104° |
| 2026-04-27 13:09 | 55.04438 | 83.30925 | 12929 ft | 393 kts | 104° |
| 2026-04-27 13:09 | 55.03826 | 83.35596 | 13422 ft | 397 kts | 104° |
| 2026-04-27 13:09 | 55.03207 | 83.40315 | 13900 ft | 402 kts | 104° |
| 2026-04-27 13:09 | 55.02578 | 83.45082 | 14332 ft | 406 kts | 105° |
| 2026-04-27 13:10 | 55.01937 | 83.49903 | 14782 ft | 409 kts | 105° |
| 2026-04-27 13:10 | 55.01294 | 83.54743 | 15244 ft | 412 kts | 105° |
| 2026-04-27 13:10 | 55.00643 | 83.59620 | 15689 ft | 414 kts | 105° |
| 2026-04-27 13:10 | 54.99987 | 83.64526 | 16142 ft | 417 kts | 105° |
| 2026-04-27 13:11 | 54.99325 | 83.69459 | 16580 ft | 420 kts | 105° |
| 2026-04-27 13:11 | 54.98656 | 83.74419 | 16993 ft | 422 kts | 105° |
| 2026-04-27 13:11 | 54.97978 | 83.79406 | 17397 ft | 424 kts | 106° |
| 2026-04-27 13:11 | 54.97294 | 83.84411 | 17788 ft | 427 kts | 106° |
| 2026-04-27 13:12 | 54.96603 | 83.89453 | 18167 ft | 429 kts | 106° |
| 2026-04-27 13:12 | 54.95909 | 83.94511 | 18539 ft | 431 kts | 106° |
| 2026-04-27 13:12 | 54.95211 | 83.99606 | 18851 ft | 434 kts | 106° |
| 2026-04-27 13:12 | 54.94509 | 84.04720 | 19176 ft | 436 kts | 107° |
| 2026-04-27 13:13 | 54.93800 | 84.09858 | 19496 ft | 438 kts | 107° |
| 2026-04-27 13:13 | 54.93083 | 84.15016 | 19820 ft | 440 kts | 107° |
| 2026-04-27 13:13 | 54.92359 | 84.20196 | 20147 ft | 442 kts | 107° |
| 2026-04-27 13:13 | 54.91632 | 84.25403 | 20478 ft | 444 kts | 108° |
| 2026-04-27 13:14 | 54.90900 | 84.30635 | 20807 ft | 446 kts | 108° |
| 2026-04-27 13:14 | 54.90165 | 84.35888 | 21147 ft | 449 kts | 108° |
| 2026-04-27 13:14 | 54.89421 | 84.41165 | 21497 ft | 451 kts | 108° |
| 2026-04-27 13:14 | 54.88668 | 84.46460 | 21824 ft | 453 kts | 109° |
| 2026-04-27 13:15 | 54.87909 | 84.51789 | 22158 ft | 455 kts | 109° |
| 2026-04-27 13:15 | 54.87154 | 84.57065 | 22503 ft | 458 kts | 109° |
| 2026-04-27 13:15 | 54.86385 | 84.62435 | 22849 ft | 460 kts | 109° |
| 2026-04-27 13:15 | 54.85718 | 84.67897 | 23175 ft | 466 kts | 103° |
| 2026-04-27 13:16 | 54.85395 | 84.73520 | 23498 ft | 470 kts | 99° |
| 2026-04-27 13:16 | 54.85104 | 84.79186 | 23807 ft | 473 kts | 100° |
| 2026-04-27 13:16 | 54.84811 | 84.84881 | 24070 ft | 475 kts | 100° |
| 2026-04-27 13:16 | 54.84511 | 84.90605 | 24329 ft | 477 kts | 100° |
| 2026-04-27 13:17 | 54.84206 | 84.96340 | 24595 ft | 479 kts | 100° |
| 2026-04-27 13:17 | 54.83899 | 85.02106 | 24854 ft | 481 kts | 100° |
| 2026-04-27 13:17 | 54.83589 | 85.07893 | 25104 ft | 483 kts | 101° |
| 2026-04-27 13:17 | 54.83270 | 85.13691 | 25364 ft | 485 kts | 101° |
| 2026-04-27 13:18 | 54.82945 | 85.19527 | 25613 ft | 487 kts | 101° |
| 2026-04-27 13:18 | 54.82823 | 85.25422 | 25860 ft | 494 kts | 92° |
| 2026-04-27 13:18 | 54.83207 | 85.31391 | 26096 ft | 501 kts | 82° |
| 2026-04-27 13:18 | 54.84115 | 85.37262 | 26328 ft | 508 kts | 72° |
| 2026-04-27 13:19 | 54.85382 | 85.43002 | 26559 ft | 510 kts | 71° |
| 2026-04-27 13:19 | 54.86662 | 85.48758 | 26800 ft | 512 kts | 71° |
| 2026-04-27 13:19 | 54.87937 | 85.54549 | 27011 ft | 514 kts | 71° |
| 2026-04-27 13:19 | 54.89204 | 85.60363 | 27249 ft | 516 kts | 72° |
| 2026-04-27 13:20 | 54.90470 | 85.66216 | 27460 ft | 518 kts | 72° |
| 2026-04-27 13:20 | 54.91736 | 85.72086 | 27665 ft | 520 kts | 72° |
| 2026-04-27 13:20 | 54.93009 | 85.77984 | 27857 ft | 522 kts | 72° |
| 2026-04-27 13:20 | 54.94269 | 85.83826 | 28057 ft | 524 kts | 72° |
| 2026-04-27 13:21 | 54.95549 | 85.89768 | 28239 ft | 525 kts | 72° |
| 2026-04-27 13:21 | 54.96830 | 85.95731 | 28401 ft | 527 kts | 72° |
| 2026-04-27 13:21 | 54.98082 | 86.01727 | 28570 ft | 528 kts | 73° |
| 2026-04-27 13:22 | 55.00221 | 86.13486 | 28982 ft | 526 kts | 77° |
| 2026-04-27 13:22 | 55.01211 | 86.19614 | 29212 ft | 525 kts | 78° |
| 2026-04-27 13:22 | 55.02172 | 86.25753 | 29434 ft | 525 kts | 78° |
| 2026-04-27 13:22 | 55.03136 | 86.31895 | 29640 ft | 526 kts | 78° |
| 2026-04-27 13:23 | 55.04122 | 86.38034 | 29856 ft | 526 kts | 78° |
| 2026-04-27 13:23 | 55.05130 | 86.44163 | 30078 ft | 526 kts | 77° |
| 2026-04-27 13:23 | 55.06155 | 86.50285 | 30287 ft | 526 kts | 77° |
| 2026-04-27 13:23 | 55.07186 | 86.56394 | 30469 ft | 525 kts | 77° |
| 2026-04-27 13:24 | 55.08199 | 86.62423 | 30654 ft | 525 kts | 77° |
| 2026-04-27 13:24 | 55.09213 | 86.68536 | 30840 ft | 524 kts | 77° |
| 2026-04-27 13:24 | 55.10214 | 86.74648 | 31029 ft | 524 kts | 77° |
| 2026-04-27 13:24 | 55.11208 | 86.80765 | 31229 ft | 523 kts | 77° |
| 2026-04-27 13:25 | 55.12194 | 86.86874 | 31412 ft | 523 kts | 77° |
| 2026-04-27 13:25 | 55.13178 | 86.92991 | 31601 ft | 522 kts | 77° |
| 2026-04-27 13:25 | 55.14161 | 86.99101 | 31789 ft | 522 kts | 77° |
| 2026-04-27 13:25 | 55.15142 | 87.05208 | 31978 ft | 522 kts | 77° |
| 2026-04-27 13:26 | 55.16119 | 87.11316 | 32178 ft | 521 kts | 77° |
| 2026-04-27 13:26 | 55.17093 | 87.17416 | 32384 ft | 521 kts | 77° |
| 2026-04-27 13:26 | 55.18066 | 87.23512 | 32571 ft | 520 kts | 77° |
| 2026-04-27 13:26 | 55.19036 | 87.29604 | 32764 ft | 520 kts | 77° |
| 2026-04-27 13:27 | 55.20000 | 87.35696 | 32950 ft | 519 kts | 77° |
| 2026-04-27 13:27 | 55.20960 | 87.41793 | 33136 ft | 519 kts | 77° |
| 2026-04-27 13:27 | 55.21918 | 87.47887 | 33310 ft | 519 kts | 77° |
| 2026-04-27 13:27 | 55.22869 | 87.53972 | 33487 ft | 518 kts | 77° |
| 2026-04-27 13:28 | 55.23815 | 87.60064 | 33666 ft | 518 kts | 77° |
| 2026-04-27 13:28 | 55.24758 | 87.66164 | 33851 ft | 518 kts | 77° |
| 2026-04-27 13:28 | 55.25696 | 87.72245 | 34028 ft | 517 kts | 77° |
| 2026-04-27 13:28 | 55.26634 | 87.78341 | 34192 ft | 517 kts | 77° |
| 2026-04-27 13:29 | 55.27565 | 87.84421 | 34327 ft | 517 kts | 78° |
| 2026-04-27 13:29 | 55.28490 | 87.90508 | 34472 ft | 516 kts | 78° |
| 2026-04-27 13:29 | 55.29414 | 87.96596 | 34623 ft | 515 kts | 77° |
| 2026-04-27 13:29 | 55.30336 | 88.02664 | 34769 ft | 515 kts | 77° |
| 2026-04-27 13:30 | 55.31253 | 88.08722 | 34910 ft | 514 kts | 77° |
| 2026-04-27 13:30 | 55.32166 | 88.14788 | 35055 ft | 513 kts | 77° |
| 2026-04-27 13:30 | 55.33069 | 88.20837 | 35162 ft | 512 kts | 77° |
| 2026-04-27 13:30 | 55.33972 | 88.26881 | 35190 ft | 511 kts | 77° |
| 2026-04-27 13:31 | 55.35762 | 88.38937 | 35182 ft | 510 kts | 78° |
| 2026-04-27 13:31 | 55.37540 | 88.51000 | 35189 ft | 510 kts | 78° |
| 2026-04-27 13:32 | 55.39309 | 88.63067 | 35182 ft | 510 kts | 78° |
| 2026-04-27 13:32 | 55.41054 | 88.75071 | 35182 ft | 509 kts | 78° |
| 2026-04-27 13:33 | 55.42790 | 88.87250 | 35179 ft | 509 kts | 79° |
| 2026-04-27 13:33 | 55.43671 | 88.99530 | 35185 ft | 505 kts | 89° |
| 2026-04-27 13:34 | 55.44230 | 89.11849 | 35181 ft | 505 kts | 89° |
| 2026-04-27 13:34 | 55.44779 | 89.24102 | 35183 ft | 505 kts | 89° |
| 2026-04-27 13:35 | 55.45320 | 89.36434 | 35176 ft | 505 kts | 89° |
| 2026-04-27 13:35 | 55.45870 | 89.48753 | 35177 ft | 504 kts | 89° |
| 2026-04-27 13:36 | 55.46401 | 89.61161 | 35172 ft | 504 kts | 89° |
| 2026-04-27 13:36 | 55.46899 | 89.73483 | 35173 ft | 504 kts | 89° |
| 2026-04-27 13:37 | 55.47394 | 89.85791 | 35171 ft | 503 kts | 89° |
| 2026-04-27 13:37 | 55.47879 | 89.98108 | 35171 ft | 503 kts | 89° |
| 2026-04-27 13:38 | 55.48341 | 90.10411 | 35175 ft | 503 kts | 89° |
| 2026-04-27 13:38 | 55.48793 | 90.22709 | 35173 ft | 502 kts | 89° |
| 2026-04-27 13:39 | 55.49158 | 90.32921 | 35175 ft | 502 kts | 89° |
| 2026-04-27 13:39 | 55.49596 | 90.45207 | 35171 ft | 502 kts | 89° |
| 2026-04-27 13:40 | 55.50027 | 90.57482 | 35170 ft | 501 kts | 89° |
| 2026-04-27 13:40 | 55.50440 | 90.69754 | 35168 ft | 501 kts | 90° |
| 2026-04-27 13:41 | 55.50833 | 90.82024 | 35167 ft | 500 kts | 90° |
| 2026-04-27 13:41 | 55.51210 | 90.94273 | 35161 ft | 500 kts | 90° |
| 2026-04-27 13:42 | 55.51573 | 91.06526 | 35160 ft | 500 kts | 90° |
| 2026-04-27 13:42 | 55.51356 | 91.18697 | 35158 ft | 495 kts | 99° |
| 2026-04-27 13:43 | 55.50708 | 91.30782 | 35154 ft | 495 kts | 99° |
| 2026-04-27 13:43 | 55.50069 | 91.42857 | 35159 ft | 494 kts | 99° |
| 2026-04-27 13:44 | 55.49402 | 91.54927 | 35164 ft | 494 kts | 99° |
| 2026-04-27 13:44 | 55.48725 | 91.66890 | 35165 ft | 493 kts | 99° |
| 2026-04-27 13:45 | 55.48036 | 91.78924 | 35166 ft | 493 kts | 99° |
| 2026-04-27 13:45 | 55.47344 | 91.90942 | 35168 ft | 492 kts | 99° |
| 2026-04-27 13:46 | 55.46628 | 92.02937 | 35166 ft | 492 kts | 99° |
| 2026-04-27 13:46 | 55.45903 | 92.14914 | 35169 ft | 491 kts | 99° |
| 2026-04-27 13:47 | 55.45177 | 92.26881 | 35167 ft | 491 kts | 99° |
| 2026-04-27 13:47 | 55.44429 | 92.38830 | 35168 ft | 490 kts | 100° |
| 2026-04-27 13:48 | 55.43667 | 92.50753 | 35169 ft | 490 kts | 100° |
| 2026-04-27 13:48 | 55.42919 | 92.62678 | 35171 ft | 489 kts | 99° |
| 2026-04-27 13:49 | 55.42170 | 92.74583 | 35166 ft | 489 kts | 100° |
| 2026-04-27 13:49 | 55.41389 | 92.86456 | 35160 ft | 488 kts | 100° |
| 2026-04-27 13:50 | 55.40600 | 92.98317 | 35159 ft | 488 kts | 100° |
| 2026-04-27 13:50 | 55.39814 | 93.10179 | 35152 ft | 488 kts | 101° |
| 2026-04-27 13:51 | 55.39015 | 93.22026 | 35152 ft | 487 kts | 101° |
| 2026-04-27 13:51 | 55.38194 | 93.33852 | 35143 ft | 487 kts | 101° |
| 2026-04-27 13:52 | 55.37360 | 93.45664 | 35136 ft | 487 kts | 101° |
| 2026-04-27 13:52 | 55.36530 | 93.57390 | 35130 ft | 487 kts | 101° |
| 2026-04-27 13:53 | 55.35257 | 93.75083 | 35120 ft | 486 kts | 101° |
| 2026-04-27 13:54 | 55.34399 | 93.86870 | 35119 ft | 486 kts | 101° |
| 2026-04-27 13:54 | 55.33522 | 93.98653 | 35121 ft | 486 kts | 101° |
| 2026-04-27 13:55 | 55.32638 | 94.10428 | 35119 ft | 486 kts | 101° |
| 2026-04-27 13:55 | 55.31739 | 94.22170 | 35116 ft | 485 kts | 101° |
| 2026-04-27 13:56 | 55.30829 | 94.33890 | 35116 ft | 484 kts | 102° |
| 2026-04-27 13:56 | 55.29906 | 94.45606 | 35111 ft | 484 kts | 102° |
| 2026-04-27 13:57 | 55.28978 | 94.57316 | 35111 ft | 485 kts | 102° |
| 2026-04-27 13:57 | 55.28047 | 94.69029 | 35108 ft | 485 kts | 102° |
| 2026-04-27 13:58 | 55.27087 | 94.80737 | 35104 ft | 485 kts | 102° |
| 2026-04-27 13:58 | 55.26127 | 94.92452 | 35103 ft | 485 kts | 101° |
| 2026-04-27 13:59 | 55.25286 | 95.04133 | 35104 ft | 486 kts | 100° |
| 2026-04-27 13:59 | 55.24510 | 95.15902 | 35102 ft | 486 kts | 99° |
| 2026-04-27 14:00 | 55.23699 | 95.27660 | 35100 ft | 486 kts | 100° |
| 2026-04-27 14:00 | 55.22838 | 95.39396 | 35103 ft | 486 kts | 100° |
| 2026-04-27 14:01 | 55.21954 | 95.51121 | 35092 ft | 486 kts | 100° |
| 2026-04-27 14:01 | 55.21080 | 95.62847 | 35094 ft | 486 kts | 100° |
| 2026-04-27 14:02 | 55.20198 | 95.74567 | 35094 ft | 485 kts | 100° |
| 2026-04-27 14:02 | 55.19302 | 95.86269 | 35098 ft | 484 kts | 100° |
| 2026-04-27 14:03 | 55.18390 | 95.97942 | 35095 ft | 484 kts | 100° |
| 2026-04-27 14:03 | 55.17472 | 96.09597 | 35099 ft | 483 kts | 100° |
| 2026-04-27 14:04 | 55.16543 | 96.21221 | 35098 ft | 483 kts | 100° |
| 2026-04-27 14:04 | 55.15605 | 96.32848 | 35096 ft | 482 kts | 100° |
| 2026-04-27 14:05 | 55.14655 | 96.44442 | 35098 ft | 482 kts | 101° |
| 2026-04-27 14:05 | 55.13687 | 96.56015 | 35100 ft | 481 kts | 100° |
| 2026-04-27 14:06 | 55.12731 | 96.67579 | 35096 ft | 480 kts | 100° |
| 2026-04-27 14:06 | 55.11757 | 96.79122 | 35089 ft | 480 kts | 100° |
| 2026-04-27 14:07 | 55.10758 | 96.90641 | 35088 ft | 480 kts | 100° |
| 2026-04-27 14:07 | 55.09754 | 97.02150 | 35093 ft | 479 kts | 100° |
| 2026-04-27 14:08 | 55.08746 | 97.13639 | 35098 ft | 479 kts | 100° |
| 2026-04-27 14:08 | 55.07677 | 97.25033 | 35103 ft | 478 kts | 101° |
| 2026-04-27 14:09 | 55.06564 | 97.36470 | 35099 ft | 478 kts | 101° |
| 2026-04-27 14:09 | 55.05453 | 97.47894 | 35103 ft | 478 kts | 101° |
| 2026-04-27 14:10 | 55.04340 | 97.59308 | 35100 ft | 477 kts | 101° |
| 2026-04-27 14:10 | 55.03217 | 97.70716 | 35101 ft | 477 kts | 101° |
| 2026-04-27 14:11 | 55.02085 | 97.82116 | 35103 ft | 477 kts | 101° |
| 2026-04-27 14:11 | 55.00943 | 97.93517 | 35098 ft | 477 kts | 101° |